Airfield :
LOGIN :

Register | Disclaimer

   EN    FR    IT 

 










Legend :    VFR   Marginal VFR   IFR   Intensive IFR   Very Intensive IFR
Visi :
Ceiling :
>= 8 km
>= 3000ft
5 to 8 km
1000 to 3000 ft
1500m to 5 km
500 to 1000 ft
800 to 1500m
200 to 500 ft
< 800m
< 200 ft
Symbols :   Thunderstorms  Fog  Heavy snow  Heavy precipitations  Wind > 20 kt
SIGMETs :     Misc.  Thunderstorms  Icing  Turbulence  Mountain Waves  Volcanic Ashes






- Airport Elevation : 284 ft


EGUW - RAF Wattisham

CURRENT METAR :
  • 301850Z 01008KT 9999 FEW020 SCT030 04/02 Q1031 NOSIG RMK BLU BLU

EXPIRED METARs :
  • 301820Z 02017KT 9999 FEW020 05/03 Q1031 TEMPO SCT022 RMK BLU TEMPO WHT
  • 301750Z 02015KT 9999 SCT025 SCT035 06/03 Q1030 TEMPO 6000 SHRA SCT022 RMK BLU TEMPO WHT
  • 301720Z 36014KT 9999 FEW020TCU SCT024 06/03 Q1031 TEMPO 6000 SHRA RMK WHT TEMPO WHT
  • 301650Z 03014KT 9999 FEW018TCU SCT020 07/05 Q1030 TEMPO 6000 SHRA RMK WHT TEMPO WHT
  • 301620Z 01012KT 9999 VCSH FEW022TCU SCT028 08/05 Q1031 TEMPO 6000 SHRA SCT022TCU RMK BLU TEMPO WHT

TAF AMD TAF EGUW
Valid from the 30 at 15:00 until the 31 at 00:00 UTC


301547Z 3015/3024 02014KT 9999 SCT030
TEMPO 3015/3019 01015G25KT
PROB30
TEMPO 3015/3017 6000 SHRA BKN018



MET'MAP, your aeronautical weather chart ! - Copyright ORBIFLY December 2007 - Disclaimer

ORBIFLY MET'MAP TEAM :

Programming & Development : Alexandra Zaïnal
Concept & original design : Baudouin d'Aumeries
Assistance for programming : Marc-Olivier Méhu
Technical & hardware support : Manuel Goepfert

Contact : metmap@orbifly.com




SOURCES & CREDITS :

   NOAA